Saint-Jean-Baptiste, Canada
Current Conditions -  °F | °C
As of 3:00 PM on Tuesday 21 Oct 2014 (Local Time) from CYQB Reporting Station
Broken Clouds Broken Clouds  
Wind Chill: 41°   Ceiling: 6200
Heat Index: 46°   Visibility: 30mi
Dew Point: 30°   Wind: 12mph
Humidity: 53%   Direction: 50°NE
Pressure: 30.12"   Gusts: NA
Location:  47.12°N, 70.18°W
Report Text: CYQB 211900Z 05010KT 30SM BKN062 BKN080 08/M01 A3012 RMK SC6AC1 SLP204
Loading
Personal Weather Stations






























Interactive Weather Map
Tropical Storm Tracking
New forecast layout! Learn more

10-Day Weather Forecast

Advertisements
Track Severe Weather on mobile